Time,TemperatureF,DewpointF,PressureIn,WindDirection,WindDirectionDegrees,WindSpeedMPH,WindSpeedGustMPH,Humidity,HourlyPrecipIn,Conditions,Clouds,dailyrainin,SoftwareType,DateUTC
2013-08-25 00:14:00,56.1,50.4,30.18,West,270,0.0,-999.0,81,-99.99,,,0.00,Acu-Link.com,2013-08-25 04:14:00,
2013-08-25 00:29:00,57.0,50.2,30.18,SSW,202,2.7,-999.0,78,-99.99,,,0.00,Acu-Link.com,2013-08-25 04:29:00,
2013-08-25 00:44:00,58.8,50.9,30.18,South,180,1.6,-999.0,75,-99.99,,,0.00,Acu-Link.com,2013-08-25 04:44:00,
2013-08-25 00:59:00,58.1,50.6,30.18,SSW,202,2.7,-999.0,76,-99.99,,,0.00,Acu-Link.com,2013-08-25 04:59:00,
2013-08-25 01:14:00,58.8,51.3,30.17,SSW,202,3.1,-999.0,76,-99.99,,,0.00,Acu-Link.com,2013-08-25 05:14:00,
2013-08-25 01:30:00,59.7,51.4,30.17,SSW,202,3.1,-999.0,74,-99.99,,,0.00,Acu-Link.com,2013-08-25 05:30:00,
2013-08-25 01:45:00,59.2,50.9,30.18,SSW,202,4.3,-999.0,74,-99.99,,,0.00,Acu-Link.com,2013-08-25 05:45:00,
2013-08-25 02:00:00,59.2,51.3,30.17,SW,225,4.3,-999.0,75,-99.99,,,0.00,Acu-Link.com,2013-08-25 06:00:00,
2013-08-25 02:15:00,59.5,51.2,30.16,SW,225,3.1,-999.0,74,-99.99,,,0.00,Acu-Link.com,2013-08-25 06:15:00,
2013-08-25 02:30:00,60.1,51.0,30.16,South,180,3.8,-999.0,72,-99.99,,,0.00,Acu-Link.com,2013-08-25 06:30:00,
2013-08-25 02:45:00,59.4,51.1,30.15,SSW,202,3.8,-999.0,74,-99.99,,,0.00,Acu-Link.com,2013-08-25 06:45:00,
2013-08-25 03:01:00,59.0,51.1,30.16,SSW,202,2.2,-999.0,75,-99.99,,,0.00,Acu-Link.com,2013-08-25 07:01:00,
2013-08-25 03:16:00,58.5,50.9,30.16,SSW,202,2.2,-999.0,76,-99.99,,,0.00,Acu-Link.com,2013-08-25 07:16:00,
2013-08-25 03:31:00,58.6,51.4,30.16,SSW,202,2.7,-999.0,77,-99.99,,,0.00,Acu-Link.com,2013-08-25 07:31:00,
2013-08-25 03:46:00,58.3,51.4,30.16,SSW,202,2.7,-999.0,78,-99.99,,,0.00,Acu-Link.com,2013-08-25 07:46:00,
2013-08-25 04:02:00,58.8,51.6,30.17,SSW,202,3.1,-999.0,77,-99.99,,,0.00,Acu-Link.com,2013-08-25 08:02:00,
2013-08-25 04:17:00,58.6,51.4,30.17,SSW,202,3.1,-999.0,77,-99.99,,,0.00,Acu-Link.com,2013-08-25 08:17:00,
2013-08-25 04:32:00,58.8,51.6,30.17,SSW,202,3.1,-999.0,77,-99.99,,,0.00,Acu-Link.com,2013-08-25 08:32:00,
2013-08-25 04:47:00,57.9,51.1,30.17,SSW,202,4.3,-999.0,78,-99.99,,,0.00,Acu-Link.com,2013-08-25 08:47:00,
2013-08-25 05:02:00,58.3,51.4,30.17,SSW,202,4.3,-999.0,78,-99.99,,,0.00,Acu-Link.com,2013-08-25 09:02:00,
2013-08-25 05:17:00,57.9,51.1,30.17,SSW,202,4.7,-999.0,78,-99.99,,,0.00,Acu-Link.com,2013-08-25 09:17:00,
2013-08-25 05:32:00,56.7,50.6,30.17,SW,225,3.8,-999.0,80,-99.99,,,0.00,Acu-Link.com,2013-08-25 09:32:00,
2013-08-25 05:47:00,56.1,50.4,30.17,SSW,202,4.3,-999.0,81,-99.99,,,0.00,Acu-Link.com,2013-08-25 09:47:00,
2013-08-25 06:03:00,56.8,50.4,30.17,SSW,202,3.1,-999.0,79,-99.99,,,0.00,Acu-Link.com,2013-08-25 10:03:00,
2013-08-25 06:18:00,55.9,49.9,30.18,SSW,202,4.3,-999.0,80,-99.99,,,0.00,Acu-Link.com,2013-08-25 10:18:00,
2013-08-25 06:33:00,56.5,50.0,30.18,SSW,202,4.3,-999.0,79,-99.99,,,0.00,Acu-Link.com,2013-08-25 10:33:00,
2013-08-25 06:48:00,57.0,49.9,30.18,SSW,202,3.1,-999.0,77,-99.99,,,0.00,Acu-Link.com,2013-08-25 10:48:00,
2013-08-25 07:03:00,57.2,50.1,30.18,SSW,202,3.1,-999.0,77,-99.99,,,0.00,Acu-Link.com,2013-08-25 11:03:00,
2013-08-25 07:19:00,57.4,50.2,30.18,SSW,202,2.7,-999.0,77,-99.99,,,0.00,Acu-Link.com,2013-08-25 11:19:00,
2013-08-25 07:34:00,59.2,50.9,30.18,SSW,202,3.1,-999.0,74,-99.99,,,0.00,Acu-Link.com,2013-08-25 11:34:00,
2013-08-25 07:49:00,59.9,51.6,30.18,West,270,2.2,-999.0,74,-99.99,,,0.00,Acu-Link.com,2013-08-25 11:49:00,
2013-08-25 08:04:00,61.0,51.9,30.18,SSW,202,2.7,-999.0,72,-99.99,,,0.00,Acu-Link.com,2013-08-25 12:04:00,
2013-08-25 08:19:00,61.5,52.8,30.18,SSW,202,2.7,-999.0,73,-99.99,,,0.00,Acu-Link.com,2013-08-25 12:19:00,
2013-08-25 08:35:00,62.1,53.3,30.17,SSW,202,3.8,-999.0,73,-99.99,,,0.00,Acu-Link.com,2013-08-25 12:35:00,
2013-08-25 08:50:00,63.1,54.7,30.17,SSW,202,1.6,-999.0,74,-99.99,,,0.00,Acu-Link.com,2013-08-25 12:50:00,
2013-08-25 09:05:00,64.4,55.2,30.17,SW,225,2.7,-999.0,72,-99.99,,,0.00,Acu-Link.com,2013-08-25 13:05:00,
2013-08-25 09:20:00,65.7,56.4,30.17,SSW,202,2.7,-999.0,72,-99.99,,,0.00,Acu-Link.com,2013-08-25 13:20:00,
2013-08-25 09:36:00,66.6,57.6,30.17,SSW,202,2.7,-999.0,73,-99.99,,,0.00,Acu-Link.com,2013-08-25 13:36:00,
2013-08-25 09:51:00,67.8,57.7,30.16,WSW,247,0.0,-999.0,70,-99.99,,,0.00,Acu-Link.com,2013-08-25 13:51:00,
2013-08-25 10:06:00,68.9,57.9,30.16,SSW,202,2.2,-999.0,68,-99.99,,,0.00,Acu-Link.com,2013-08-25 14:06:00,
2013-08-25 10:21:00,69.6,59.8,30.17,SSE,157,0.0,-999.0,71,-99.99,,,0.00,Acu-Link.com,2013-08-25 14:21:00,
2013-08-25 10:36:00,71.1,59.1,30.16,SW,225,2.7,-999.0,66,-99.99,,,0.00,Acu-Link.com,2013-08-25 14:36:00,
2013-08-25 10:52:00,72.5,55.9,30.16,WNW,292,3.1,-999.0,56,-99.99,,,0.00,Acu-Link.com,2013-08-25 14:52:00,
2013-08-25 11:07:00,72.9,56.7,30.17,NNW,337,3.1,-999.0,57,-99.99,,,0.00,Acu-Link.com,2013-08-25 15:07:00,
2013-08-25 11:22:00,73.6,55.4,30.17,WSW,247,5.1,-999.0,53,-99.99,,,0.00,Acu-Link.com,2013-08-25 15:22:00,
2013-08-25 11:37:00,73.9,54.7,30.16,SW,225,3.8,-999.0,51,-99.99,,,0.00,Acu-Link.com,2013-08-25 15:37:00,
2013-08-25 11:52:00,74.5,55.2,30.15,WNW,292,4.3,-999.0,51,-99.99,,,0.00,Acu-Link.com,2013-08-25 15:52:00,
2013-08-25 12:08:00,74.8,54.4,30.16,NW,315,3.1,-999.0,49,-99.99,,,0.00,Acu-Link.com,2013-08-25 16:08:00,
2013-08-25 12:23:00,75.4,56.0,30.15,NNW,337,2.2,-999.0,51,-99.99,,,0.00,Acu-Link.com,2013-08-25 16:23:00,
2013-08-25 12:38:00,75.9,54.2,30.14,South,180,5.8,-999.0,47,-99.99,,,0.00,Acu-Link.com,2013-08-25 16:38:00,
2013-08-25 12:53:00,76.5,55.3,30.13,West,270,5.1,-999.0,48,-99.99,,,0.00,Acu-Link.com,2013-08-25 16:53:00,
2013-08-25 13:08:00,77.2,56.0,30.13,West,270,2.7,-999.0,48,-99.99,,,0.00,Acu-Link.com,2013-08-25 17:08:00,
2013-08-25 13:24:00,78.1,55.6,30.12,West,270,3.8,-999.0,46,-99.99,,,0.00,Acu-Link.com,2013-08-25 17:24:00,
2013-08-25 13:39:00,77.7,54.7,30.12,SSW,202,3.8,-999.0,45,-99.99,,,0.00,Acu-Link.com,2013-08-25 17:39:00,
2013-08-25 13:54:00,78.3,56.4,30.11,WNW,292,2.7,-999.0,47,-99.99,,,0.00,Acu-Link.com,2013-08-25 17:54:00,
2013-08-25 14:09:00,79.3,56.1,30.13,SW,225,5.8,-999.0,45,-99.99,,,0.00,Acu-Link.com,2013-08-25 18:09:00,
2013-08-25 14:24:00,79.9,56.0,30.13,SW,225,6.3,-999.0,44,-99.99,,,0.00,Acu-Link.com,2013-08-25 18:24:00,
2013-08-25 14:39:00,78.6,55.5,30.13,West,270,4.3,-999.0,45,-99.99,,,0.00,Acu-Link.com,2013-08-25 18:39:00,
2013-08-25 14:55:00,80.1,56.2,30.12,SSW,202,5.8,-999.0,44,-99.99,,,0.00,Acu-Link.com,2013-08-25 18:55:00,
2013-08-25 15:10:00,78.8,56.2,30.11,SW,225,3.8,-999.0,46,-99.99,,,0.00,Acu-Link.com,2013-08-25 19:10:00,
2013-08-25 15:25:00,79.2,57.8,30.09,SSW,202,5.1,-999.0,48,-99.99,,,0.00,Acu-Link.com,2013-08-25 19:25:00,
2013-08-25 15:40:00,78.4,57.7,30.09,SW,225,4.7,-999.0,49,-99.99,,,0.00,Acu-Link.com,2013-08-25 19:40:00,
2013-08-25 15:56:00,77.0,57.5,30.08,WSW,247,6.7,-999.0,51,-99.99,,,0.00,Acu-Link.com,2013-08-25 19:56:00,
2013-08-25 16:11:00,79.2,60.0,30.09,SSW,202,3.1,-999.0,52,-99.99,,,0.00,Acu-Link.com,2013-08-25 20:11:00,
2013-08-25 16:26:00,79.5,58.7,30.09,WNW,292,4.7,-999.0,49,-99.99,,,0.00,Acu-Link.com,2013-08-25 20:26:00,
2013-08-25 16:41:00,79.2,58.3,30.08,West,270,4.7,-999.0,49,-99.99,,,0.00,Acu-Link.com,2013-08-25 20:41:00,
2013-08-25 16:56:00,78.6,58.4,30.08,West,270,3.8,-999.0,50,-99.99,,,0.00,Acu-Link.com,2013-08-25 20:56:00,
2013-08-25 17:12:00,76.8,57.3,30.07,WNW,292,5.1,-999.0,51,-99.99,,,0.00,Acu-Link.com,2013-08-25 21:12:00,
2013-08-25 17:27:00,77.0,57.5,30.07,NNW,337,7.4,-999.0,51,-99.99,,,0.00,Acu-Link.com,2013-08-25 21:27:00,
2013-08-25 17:42:00,77.7,58.1,30.06,SW,225,2.2,-999.0,51,-99.99,,,0.00,Acu-Link.com,2013-08-25 21:42:00,
2013-08-25 17:57:00,75.0,56.7,30.06,West,270,3.1,-999.0,53,-99.99,,,0.00,Acu-Link.com,2013-08-25 21:57:00,
2013-08-25 18:12:00,74.1,56.4,30.05,NW,315,1.6,-999.0,54,-99.99,,,0.00,Acu-Link.com,2013-08-25 22:12:00,
2013-08-25 18:28:00,73.4,56.7,30.05,NNW,337,1.6,-999.0,56,-99.99,,,0.00,Acu-Link.com,2013-08-25 22:28:00,
2013-08-25 18:43:00,73.4,56.2,30.05,WSW,247,2.7,-999.0,55,-99.99,,,0.00,Acu-Link.com,2013-08-25 22:43:00,
2013-08-25 18:58:00,72.7,56.1,30.03,SW,225,1.6,-999.0,56,-99.99,,,0.00,Acu-Link.com,2013-08-25 22:58:00,
2013-08-25 19:13:00,72.9,55.7,30.02,West,270,1.6,-999.0,55,-99.99,,,0.00,Acu-Link.com,2013-08-25 23:13:00,
2013-08-25 19:28:00,71.1,55.0,30.03,WNW,292,2.2,-999.0,57,-99.99,,,0.00,Acu-Link.com,2013-08-25 23:28:00,
2013-08-25 19:44:00,70.3,54.4,30.03,West,270,2.7,-999.0,57,-99.99,,,0.00,Acu-Link.com,2013-08-25 23:44:00,
2013-08-25 19:59:00,70.2,54.2,30.02,West,270,1.6,-999.0,57,-99.99,,,0.00,Acu-Link.com,2013-08-25 23:59:00,
2013-08-25 20:14:00,69.8,53.9,30.02,WNW,292,2.7,-999.0,57,-99.99,,,0.00,Acu-Link.com,2013-08-26 00:14:00,
2013-08-25 20:29:00,69.4,53.5,30.02,South,180,0.0,-999.0,57,-99.99,,,0.00,Acu-Link.com,2013-08-26 00:29:00,
2013-08-25 20:45:00,69.1,54.1,30.01,South,180,0.0,-999.0,59,-99.99,,,0.00,Acu-Link.com,2013-08-26 00:45:00,
2013-08-25 21:00:00,68.7,54.3,30.00,South,180,0.0,-999.0,60,-99.99,,,0.00,Acu-Link.com,2013-08-26 01:00:00,
2013-08-25 21:15:00,68.2,54.2,30.00,ESE,112,0.0,-999.0,61,-99.99,,,0.00,Acu-Link.com,2013-08-26 01:15:00,
2013-08-25 21:30:00,67.8,54.3,30.01,SE,135,0.0,-999.0,62,-99.99,,,0.00,Acu-Link.com,2013-08-26 01:30:00,
2013-08-25 21:45:00,67.6,54.6,29.99,South,180,1.6,-999.0,63,-99.99,,,0.00,Acu-Link.com,2013-08-26 01:45:00,
2013-08-25 22:01:00,67.6,54.6,29.99,South,180,3.1,-999.0,63,-99.99,,,0.00,Acu-Link.com,2013-08-26 02:01:00,
2013-08-25 22:16:00,68.9,55.3,29.99,WSW,247,3.1,-999.0,62,-99.99,,,0.00,Acu-Link.com,2013-08-26 02:16:00,
2013-08-25 22:31:00,68.9,55.3,30.00,SSW,202,2.2,-999.0,62,-99.99,,,0.00,Acu-Link.com,2013-08-26 02:31:00,
2013-08-25 22:46:00,69.3,55.7,30.00,West,270,2.7,-999.0,62,-99.99,,,0.00,Acu-Link.com,2013-08-26 02:46:00,
2013-08-25 23:01:00,69.6,56.0,30.01,West,270,4.3,-999.0,62,-99.99,,,0.00,Acu-Link.com,2013-08-26 03:01:00,
2013-08-25 23:17:00,70.0,56.4,30.03,NNW,337,2.7,-999.0,62,-99.99,,,0.00,Acu-Link.com,2013-08-26 03:17:00,
2013-08-25 23:32:00,70.0,56.4,30.06,West,270,0.0,-999.0,62,-99.99,,,0.00,Acu-Link.com,2013-08-26 03:32:00,
2013-08-25 23:47:00,69.1,56.8,30.05,West,270,0.0,-999.0,65,-99.99,,,0.00,Acu-Link.com,2013-08-26 03:47:00,